Orlando, Florida
Traffic Map
Current Weather Conditions
Orlando, Florida
Overcast Light Rain
Overcast
74°
Feels Like: 74°
Wind Chill: 74° Ceiling: 5000
Heat Index: 74° Visibility: 8mi
Dew Point: 73° Wind: 8mph
Humidity: 97% Direction: 110° (ESE)
Pressure: 29.94in Gusts: 0mph
Raw Report DataKORL 300653Z AUTO 11007KT 8SM -RA BKN050 OVC090 23/23 A2994 RMK AO2 RAB28 SLP141 P0000 T02330228
Traffic Incident Summary
Active as of:
Severity:
Category:
InformationThere was an issue retrieving the traffic information for this location. Please try a different location or try again shortly.
Advertisements
Track Severe Weather on mobile